Time;durP1;ratioP1;P1;durP2;ratioP2;P2;SDS_P1;SDS_P2;PMS_P1;PMS_P2;Temp;Humidity;BMP_temperature;BMP_pressure;BME280_temperature;BME280_humidity;BME280_pressure;Samples;Min_cycle;Max_cycle;Signal;HPM_P1;HPM_P2
2022/05/29 00:01:59;;;;;;;2.03;1.00;;;;;;;;;;5108587;28;20682;-71
2022/05/29 00:04:27;;;;;;;4.43;1.40;;;;;;;;;;5109871;28;20237;-72
2022/05/29 00:06:57;;;;;;;3.30;1.20;;;;;;;;;;5104218;28;20247;-70
2022/05/29 00:09:31;;;;;;;2.63;1.27;;;;;;;;;;5099645;28;20206;-71
2022/05/29 00:11:59;;;;;;;5.83;1.70;;;;;;;;;;5099343;28;20247;-71
2022/05/29 00:14:29;;;;;;;1.57;0.90;;;;;;;;;;5099741;28;20220;-71
2022/05/29 00:16:57;;;;;;;1.40;0.83;;;;;;;;;;5099330;28;20259;-72
2022/05/29 00:19:26;;;;;;;2.07;1.10;;;;;;;;;;5099693;28;20201;-71
2022/05/29 00:21:54;;;;;;;3.00;1.20;;;;;;;;;;5099717;28;20205;-71
2022/05/29 00:24:22;;;;;;;1.30;0.90;;;;;;;;;;5098980;28;20754;-71
2022/05/29 00:26:50;;;;;;;2.63;1.10;;;;;;;;;;5099625;28;20261;-71
2022/05/29 00:29:18;;;;;;;1.60;1.00;;;;;;;;;;5099280;28;20326;-71
2022/05/29 00:31:54;;;;;;;2.13;1.20;;;;;;;;;;5099475;28;20302;-72
2022/05/29 00:34:22;;;;;;;2.67;1.20;;;;;;;;;;5099274;28;20236;-71
2022/05/29 00:36:50;;;;;;;1.67;1.17;;;;;;;;;;5098621;28;20309;-71
2022/05/29 00:39:18;;;;;;;3.20;1.10;;;;;;;;;;5099029;28;20264;-71
2022/05/29 00:41:46;;;;;;;1.33;1.10;;;;;;;;;;5099118;28;20637;-71
2022/05/29 00:44:16;;;;;;;1.97;0.97;;;;;;;;;;5099247;28;20229;-71
2022/05/29 00:46:45;;;;;;;2.60;1.00;;;;;;;;;;5098555;28;20233;-71
2022/05/29 00:49:15;;;;;;;2.00;0.97;;;;;;;;;;5098754;28;20229;-71
2022/05/29 00:51:45;;;;;;;4.67;1.17;;;;;;;;;;5099295;28;20210;-71
2022/05/29 00:54:13;;;;;;;3.87;1.40;;;;;;;;;;5087125;28;20250;-71
2022/05/29 00:56:42;;;;;;;1.80;1.00;;;;;;;;;;5099096;28;20225;-71
2022/05/29 00:59:12;;;;;;;1.20;0.97;;;;;;;;;;5098838;28;20202;-71
2022/05/29 01:01:40;;;;;;;1.60;1.07;;;;;;;;;;5098449;28;20250;-71
2022/05/29 01:04:09;;;;;;;3.97;1.20;;;;;;;;;;5098876;28;20229;-71
2022/05/29 01:06:39;;;;;;;1.47;1.17;;;;;;;;;;5098895;28;20261;-71
2022/05/29 01:09:07;;;;;;;3.27;1.00;;;;;;;;;;5098724;28;20296;-71
2022/05/29 01:11:39;;;;;;;1.93;1.20;;;;;;;;;;5098820;28;20227;-71
2022/05/29 01:14:12;;;;;;;1.63;1.10;;;;;;;;;;5098888;28;20201;-71
2022/05/29 01:16:44;;;;;;;5.97;1.20;;;;;;;;;;5098383;28;20270;-71
2022/05/29 01:19:30;;;;;;;2.50;1.00;;;;;;;;;;5098461;28;20202;-71
2022/05/29 01:22:04;;;;;;;3.23;1.40;;;;;;;;;;5086990;28;20249;-71
2022/05/29 01:24:41;;;;;;;5.33;1.20;;;;;;;;;;5098489;28;20222;-71
2022/05/29 01:27:20;;;;;;;3.17;1.23;;;;;;;;;;5098556;28;20261;-71
2022/05/29 01:29:54;;;;;;;2.30;1.50;;;;;;;;;;5098264;28;20289;-70
2022/05/29 01:32:25;;;;;;;2.20;1.30;;;;;;;;;;5098478;28;20206;-70
2022/05/29 01:34:55;;;;;;;4.13;1.50;;;;;;;;;;5098424;28;20233;-70
2022/05/29 01:37:28;;;;;;;2.30;1.27;;;;;;;;;;5097924;28;20237;-70
2022/05/29 01:40:02;;;;;;;5.60;1.33;;;;;;;;;;5098304;28;20292;-71
2022/05/29 01:42:33;;;;;;;3.97;1.30;;;;;;;;;;5098295;28;20233;-70
2022/05/29 01:45:07;;;;;;;1.80;1.20;;;;;;;;;;5097981;28;20272;-70
2022/05/29 01:47:39;;;;;;;3.57;1.30;;;;;;;;;;5097493;28;20233;-72
2022/05/29 01:50:10;;;;;;;2.23;1.07;;;;;;;;;;5097918;28;20233;-73
2022/05/29 01:52:40;;;;;;;2.30;1.37;;;;;;;;;;5093580;28;20202;-72
2022/05/29 01:55:09;;;;;;;3.57;1.20;;;;;;;;;;5105559;28;20269;-71
2022/05/29 01:57:39;;;;;;;3.67;1.10;;;;;;;;;;5118105;28;20215;-70
2022/05/29 02:00:10;;;;;;;1.77;1.30;;;;;;;;;;5118079;28;20209;-70
2022/05/29 02:02:39;;;;;;;5.00;0.90;;;;;;;;;;5118820;28;20236;-73
2022/05/29 02:05:09;;;;;;;2.60;1.17;;;;;;;;;;5118541;28;20323;-73
2022/05/29 02:10:30;;;;;;;3.23;1.00;;;;;;;;;;5111644;28;20246;-73
2022/05/29 02:13:01;;;;;;;3.33;1.23;;;;;;;;;;5118345;28;20679;-73
2022/05/29 02:15:35;;;;;;;3.80;1.20;;;;;;;;;;5117724;28;20719;-72
2022/05/29 02:18:04;;;;;;;2.77;1.40;;;;;;;;;;5097936;28;20241;-73
2022/05/29 02:20:35;;;;;;;6.17;1.10;;;;;;;;;;5097751;28;20237;-72
2022/05/29 02:23:06;;;;;;;3.37;1.00;;;;;;;;;;5097722;28;20232;-73
2022/05/29 02:25:36;;;;;;;2.67;1.10;;;;;;;;;;5097395;28;20236;-72
2022/05/29 02:28:07;;;;;;;4.10;1.43;;;;;;;;;;5097442;28;20210;-73
2022/05/29 02:30:39;;;;;;;3.30;0.90;;;;;;;;;;5097436;28;20236;-73
2022/05/29 02:33:11;;;;;;;4.73;1.03;;;;;;;;;;5097828;28;20243;-73
2022/05/29 02:35:42;;;;;;;1.13;0.80;;;;;;;;;;5097460;28;20225;-74
2022/05/29 02:38:14;;;;;;;1.30;1.13;;;;;;;;;;5097569;28;20205;-76
2022/05/29 02:40:45;;;;;;;4.17;1.40;;;;;;;;;;5097258;28;20236;-76
2022/05/29 02:43:18;;;;;;;3.33;1.37;;;;;;;;;;5096917;28;20225;-78
2022/05/29 02:45:51;;;;;;;3.00;0.93;;;;;;;;;;5096534;28;20300;-77
2022/05/29 02:48:23;;;;;;;2.50;0.87;;;;;;;;;;5095556;28;20594;-77
2022/05/29 02:50:55;;;;;;;3.77;1.53;;;;;;;;;;5080443;28;20202;-78
2022/05/29 02:53:24;;;;;;;3.37;1.30;;;;;;;;;;5078588;28;20203;-77
2022/05/29 02:55:53;;;;;;;3.53;1.77;;;;;;;;;;5079134;28;20220;-77
2022/05/29 02:58:22;;;;;;;2.53;1.47;;;;;;;;;;5079618;28;20236;-79
2022/05/29 03:00:59;;;;;;;3.03;1.30;;;;;;;;;;5083361;28;20248;-78
2022/05/29 03:03:31;;;;;;;3.97;1.20;;;;;;;;;;5095095;28;20205;-79
2022/05/29 03:06:02;;;;;;;3.17;1.40;;;;;;;;;;5082358;28;20305;-79
2022/05/29 03:08:35;;;;;;;1.90;1.10;;;;;;;;;;5093917;28;20226;-77
2022/05/29 03:11:06;;;;;;;2.13;1.33;;;;;;;;;;5080673;28;20277;-80
2022/05/29 03:13:41;;;;;;;3.57;1.20;;;;;;;;;;5093410;28;20205;-79
2022/05/29 03:16:16;;;;;;;3.43;1.17;;;;;;;;;;5099227;28;20217;-78
2022/05/29 03:18:46;;;;;;;6.30;1.50;;;;;;;;;;5099230;28;20194;-77
2022/05/29 03:21:18;;;;;;;2.10;0.90;;;;;;;;;;5097231;28;20197;-78
2022/05/29 03:23:49;;;;;;;2.00;1.20;;;;;;;;;;5100088;28;20289;-79
2022/05/29 03:26:25;;;;;;;3.37;1.53;;;;;;;;;;5101135;28;20225;-79
2022/05/29 03:28:56;;;;;;;3.70;1.23;;;;;;;;;;5091279;28;20212;-79
2022/05/29 03:31:27;;;;;;;2.17;1.20;;;;;;;;;;5100452;28;20242;-81
2022/05/29 03:33:56;;;;;;;1.90;1.03;;;;;;;;;;5100511;28;20292;-79
2022/05/29 03:36:28;;;;;;;4.40;1.17;;;;;;;;;;5100496;28;20229;-79
2022/05/29 03:38:56;;;;;;;3.20;1.30;;;;;;;;;;5100455;28;20206;-79
2022/05/29 03:41:27;;;;;;;3.87;1.40;;;;;;;;;;5086915;28;20256;-79
2022/05/29 03:43:55;;;;;;;2.93;1.20;;;;;;;;;;5100015;28;20232;-79
2022/05/29 03:46:25;;;;;;;2.07;1.20;;;;;;;;;;5099868;28;20260;-79
2022/05/29 03:48:53;;;;;;;4.13;1.60;;;;;;;;;;5099777;28;20740;-79
2022/05/29 03:51:21;;;;;;;2.00;1.20;;;;;;;;;;5100335;28;20278;-79
2022/05/29 03:53:49;;;;;;;1.97;0.93;;;;;;;;;;5088403;28;20217;-79
2022/05/29 03:56:17;;;;;;;1.77;1.37;;;;;;;;;;5100060;28;20228;-78
2022/05/29 03:58:51;;;;;;;3.47;1.30;;;;;;;;;;5100399;28;20213;-78
2022/05/29 04:01:19;;;;;;;2.77;0.97;;;;;;;;;;5100302;28;20241;-78
2022/05/29 04:03:49;;;;;;;4.00;1.30;;;;;;;;;;5100300;28;20209;-78
2022/05/29 04:06:17;;;;;;;3.30;0.80;;;;;;;;;;5099883;28;20233;-79
2022/05/29 04:14:16;;;;;;;6.23;1.23;;;;;;;;;;5099702;28;20737;-80
2022/05/29 04:16:44;;;;;;;2.97;1.00;;;;;;;;;;5099623;28;20253;-82
2022/05/29 04:19:14;;;;;;;5.50;1.83;;;;;;;;;;5099534;28;20206;-79
2022/05/29 04:21:42;;;;;;;2.43;1.50;;;;;;;;;;5099390;28;20240;-79
2022/05/29 04:24:10;;;;;;;1.10;1.10;;;;;;;;;;5099297;28;20233;-79
2022/05/29 04:26:38;;;;;;;2.50;1.27;;;;;;;;;;5099546;28;20263;-80
2022/05/29 04:29:06;;;;;;;1.43;1.03;;;;;;;;;;5099615;28;20235;-79
2022/05/29 04:31:34;;;;;;;2.23;1.07;;;;;;;;;;5098892;28;20240;-79
2022/05/29 04:34:01;;;;;;;5.97;1.30;;;;;;;;;;5099467;28;20205;-73
2022/05/29 04:36:31;;;;;;;2.97;1.33;;;;;;;;;;5102663;28;20249;-75
2022/05/29 04:38:59;;;;;;;5.13;1.37;;;;;;;;;;5106059;28;20258;-75
2022/05/29 04:41:27;;;;;;;3.33;1.20;;;;;;;;;;5099035;28;20232;-73
2022/05/29 04:43:55;;;;;;;3.87;1.43;;;;;;;;;;5101813;28;20236;-73
2022/05/29 04:46:22;;;;;;;2.13;1.37;;;;;;;;;;5098183;28;20783;-73
2022/05/29 04:48:51;;;;;;;3.97;1.60;;;;;;;;;;5098624;28;20261;-72
2022/05/29 04:51:19;;;;;;;2.33;1.23;;;;;;;;;;5099078;28;20573;-72
2022/05/29 04:53:48;;;;;;;2.93;1.53;;;;;;;;;;5087042;28;20255;-73
2022/05/29 04:56:16;;;;;;;4.93;1.30;;;;;;;;;;5099239;28;20262;-73
2022/05/29 04:58:44;;;;;;;6.63;1.90;;;;;;;;;;5099810;28;20632;-73
2022/05/29 05:01:12;;;;;;;2.83;1.50;;;;;;;;;;5107575;28;20739;-73
2022/05/29 05:03:41;;;;;;;4.60;1.87;;;;;;;;;;5104040;28;20197;-74
2022/05/29 05:06:10;;;;;;;2.97;1.30;;;;;;;;;;5098610;28;20309;-74
2022/05/29 05:08:38;;;;;;;3.00;1.60;;;;;;;;;;5099316;28;20237;-74
2022/05/29 05:11:07;;;;;;;3.13;1.60;;;;;;;;;;5098470;28;20236;-74
2022/05/29 05:13:35;;;;;;;5.30;2.37;;;;;;;;;;5100309;28;20209;-75
2022/05/29 05:16:04;;;;;;;2.07;1.50;;;;;;;;;;5090592;28;20217;-76
2022/05/29 05:18:33;;;;;;;3.53;2.03;;;;;;;;;;5098438;28;20730;-76
2022/05/29 05:21:04;;;;;;;1.73;1.30;;;;;;;;;;5095748;28;20201;-75
2022/05/29 05:23:32;;;;;;;1.63;1.40;;;;;;;;;;5098861;28;20197;-76
2022/05/29 05:26:00;;;;;;;4.23;1.57;;;;;;;;;;5098085;28;20268;-76
2022/05/29 05:28:29;;;;;;;2.60;1.20;;;;;;;;;;5098254;28;20653;-75
2022/05/29 05:30:57;;;;;;;3.90;1.63;;;;;;;;;;5098110;28;20209;-73
2022/05/29 05:33:25;;;;;;;4.87;1.60;;;;;;;;;;5098463;28;20209;-75
2022/05/29 05:35:53;;;;;;;3.73;1.40;;;;;;;;;;5098351;28;20225;-75
2022/05/29 05:38:21;;;;;;;3.97;1.40;;;;;;;;;;5098361;28;20244;-76
2022/05/29 05:40:50;;;;;;;3.23;1.33;;;;;;;;;;5098328;28;20240;-73
2022/05/29 05:43:19;;;;;;;4.13;1.33;;;;;;;;;;5097999;28;20259;-73
2022/05/29 05:45:48;;;;;;;3.90;1.27;;;;;;;;;;5097454;28;20237;-73
2022/05/29 05:48:17;;;;;;;3.70;1.40;;;;;;;;;;5097750;28;20237;-73
2022/05/29 05:50:47;;;;;;;10.00;1.27;;;;;;;;;;5097995;28;20236;-74
2022/05/29 05:53:15;;;;;;;5.93;1.57;;;;;;;;;;5088262;28;20238;-72
2022/05/29 05:55:43;;;;;;;1.67;1.27;;;;;;;;;;5115113;28;20224;-73
2022/05/29 05:58:11;;;;;;;0.97;0.80;;;;;;;;;;5118161;28;20216;-75
2022/05/29 06:00:39;;;;;;;3.07;1.13;;;;;;;;;;5117928;28;20244;-75
2022/05/29 06:03:09;;;;;;;2.63;1.40;;;;;;;;;;5107234;28;20193;-71
2022/05/29 06:05:37;;;;;;;4.13;1.50;;;;;;;;;;5105937;28;20304;-71
2022/05/29 06:08:05;;;;;;;1.57;1.00;;;;;;;;;;5107303;28;20200;-72
2022/05/29 06:10:33;;;;;;;5.90;1.57;;;;;;;;;;5103139;28;20246;-72
2022/05/29 06:13:01;;;;;;;4.00;1.50;;;;;;;;;;5097836;28;20229;-72
2022/05/29 06:15:29;;;;;;;3.13;1.47;;;;;;;;;;5097753;28;20257;-72
2022/05/29 06:17:57;;;;;;;2.50;1.40;;;;;;;;;;5096779;28;20233;-71
2022/05/29 06:20:27;;;;;;;3.53;1.50;;;;;;;;;;5097238;28;20305;-70
2022/05/29 06:22:55;;;;;;;4.90;1.50;;;;;;;;;;5097070;28;20225;-72
2022/05/29 06:25:23;;;;;;;3.13;1.40;;;;;;;;;;5097248;28;20247;-72
2022/05/29 06:27:51;;;;;;;6.80;1.50;;;;;;;;;;5098234;28;20569;-71
2022/05/29 06:30:19;;;;;;;2.50;1.60;;;;;;;;;;5102136;28;20225;-71
2022/05/29 06:32:47;;;;;;;3.00;1.73;;;;;;;;;;5106422;28;20205;-71
2022/05/29 06:35:16;;;;;;;2.97;1.40;;;;;;;;;;5109727;28;20200;-72
2022/05/29 06:37:45;;;;;;;1.77;1.10;;;;;;;;;;5109857;28;20266;-73
2022/05/29 06:40:14;;;;;;;4.33;2.07;;;;;;;;;;5109730;28;20246;-72
2022/05/29 06:42:42;;;;;;;2.40;1.70;;;;;;;;;;5101320;28;20574;-72
2022/05/29 06:45:11;;;;;;;5.23;2.77;;;;;;;;;;5105910;28;20198;-72
2022/05/29 06:47:39;;;;;;;4.20;1.80;;;;;;;;;;5108886;28;20264;-72
2022/05/29 06:50:09;;;;;;;4.73;1.27;;;;;;;;;;5109493;28;20243;-71
2022/05/29 06:52:38;;;;;;;2.77;1.60;;;;;;;;;;5108790;28;20193;-71
2022/05/29 06:55:08;;;;;;;3.63;1.20;;;;;;;;;;5109943;28;20197;-70
2022/05/29 06:57:41;;;;;;;2.60;1.90;;;;;;;;;;5110543;28;20202;-70
2022/05/29 07:08:27;;;;;;;3.60;1.53;;;;;;;;;;5109681;28;20481;-72
2022/05/29 07:10:57;;;;;;;2.50;1.30;;;;;;;;;;5110746;28;20282;-72
2022/05/29 07:13:25;;;;;;;3.00;1.50;;;;;;;;;;5111735;28;20197;-71
2022/05/29 07:15:53;;;;;;;4.97;1.27;;;;;;;;;;5098813;28;20214;-71
2022/05/29 07:18:21;;;;;;;4.97;1.57;;;;;;;;;;5103272;28;20215;-70
2022/05/29 07:20:49;;;;;;;3.03;1.67;;;;;;;;;;5098840;28;21566;-73
2022/05/29 07:23:17;;;;;;;1.37;1.27;;;;;;;;;;5098762;28;20786;-73
2022/05/29 07:25:45;;;;;;;3.63;3.17;;;;;;;;;;5098902;28;20273;-72
2022/05/29 07:28:15;;;;;;;3.67;1.20;;;;;;;;;;5099112;28;20212;-72
2022/05/29 07:30:43;;;;;;;4.57;1.93;;;;;;;;;;5098467;28;20648;-71
2022/05/29 07:33:11;;;;;;;4.10;1.67;;;;;;;;;;5098719;28;20233;-70
2022/05/29 07:35:39;;;;;;;3.63;1.53;;;;;;;;;;5097698;28;20280;-71
2022/05/29 07:38:07;;;;;;;3.30;1.30;;;;;;;;;;5100527;28;20248;-71
2022/05/29 07:40:35;;;;;;;7.60;1.67;;;;;;;;;;5100412;28;20248;-73
2022/05/29 07:43:21;;;;;;;3.57;1.10;;;;;;;;;;5100573;28;20707;-73
2022/05/29 07:45:54;;;;;;;2.97;1.53;;;;;;;;;;5084491;28;20724;-71
2022/05/29 07:48:24;;;;;;;1.90;1.10;;;;;;;;;;5111787;28;20301;-73
2022/05/29 07:50:53;;;;;;;48.67;22.47;;;;;;;;;;5097969;28;20236;-73
2022/05/29 07:53:21;;;;;;;8.93;5.70;;;;;;;;;;5091498;28;20210;-69
2022/05/29 07:55:49;;;;;;;2.10;1.47;;;;;;;;;;5099713;28;21041;-67
2022/05/29 07:58:17;;;;;;;3.90;1.60;;;;;;;;;;5099268;28;20240;-70
2022/05/29 08:00:55;;;;;;;1.97;0.93;;;;;;;;;;5103626;28;20197;-70
2022/05/29 08:03:23;;;;;;;3.93;1.50;;;;;;;;;;5106390;28;20279;-69
2022/05/29 08:05:51;;;;;;;4.70;1.43;;;;;;;;;;5106140;28;20221;-69
2022/05/29 08:08:19;;;;;;;4.93;1.53;;;;;;;;;;5109377;28;20262;-71
2022/05/29 08:10:47;;;;;;;2.83;1.07;;;;;;;;;;5110532;28;20232;-70
2022/05/29 08:13:16;;;;;;;1.37;0.97;;;;;;;;;;5106009;28;20200;-70
2022/05/29 08:15:44;;;;;;;3.47;1.07;;;;;;;;;;5108165;28;20217;-71
2022/05/29 08:18:13;;;;;;;4.33;1.40;;;;;;;;;;5107655;28;20228;-71
2022/05/29 08:20:41;;;;;;;2.53;1.23;;;;;;;;;;5106365;28;20558;-71
2022/05/29 08:23:14;;;;;;;3.50;1.77;;;;;;;;;;5108372;28;20225;-70
2022/05/29 08:31:25;;;;;;;3.43;1.53;;;;;;;;;;5035801;28;20227;-74
2022/05/29 08:33:55;;;;;;;2.47;1.30;;;;;;;;;;5084146;28;20342;-73
2022/05/29 08:36:25;;;;;;;3.53;1.10;;;;;;;;;;5098421;28;20253;-74
2022/05/29 08:38:56;;;;;;;2.47;1.20;;;;;;;;;;5097982;28;20198;-74
2022/05/29 08:41:33;;;;;;;2.27;1.30;;;;;;;;;;5097093;28;20206;-71
2022/05/29 08:44:04;;;;;;;3.00;0.97;;;;;;;;;;5098805;28;20576;-74
2022/05/29 08:46:35;;;;;;;4.77;1.60;;;;;;;;;;5098729;28;20841;-74
2022/05/29 08:49:05;;;;;;;2.30;1.13;;;;;;;;;;5095170;28;20714;-71
2022/05/29 08:51:39;;;;;;;2.60;1.30;;;;;;;;;;5099209;28;20229;-73
2022/05/29 08:54:11;;;;;;;2.40;1.23;;;;;;;;;;5098015;28;20281;-74
2022/05/29 08:56:44;;;;;;;3.00;1.23;;;;;;;;;;5097995;28;20263;-73
2022/05/29 08:59:16;;;;;;;3.10;1.50;;;;;;;;;;5097373;28;20608;-73
2022/05/29 09:01:51;;;;;;;3.30;1.20;;;;;;;;;;5098716;28;20241;-73
2022/05/29 09:04:26;;;;;;;3.50;1.10;;;;;;;;;;5099507;28;20229;-73
2022/05/29 09:06:55;;;;;;;3.07;1.80;;;;;;;;;;5098269;28;20242;-73
2022/05/29 09:09:32;;;;;;;2.90;1.30;;;;;;;;;;5095886;28;20605;-73
2022/05/29 09:12:02;;;;;;;4.10;1.50;;;;;;;;;;5098760;28;20751;-73
2022/05/29 09:14:37;;;;;;;4.47;1.30;;;;;;;;;;5099660;28;20197;-73
2022/05/29 09:17:06;;;;;;;2.90;1.30;;;;;;;;;;5097617;28;20238;-73
2022/05/29 09:19:39;;;;;;;1.67;1.40;;;;;;;;;;5097957;28;20232;-75
2022/05/29 09:22:14;;;;;;;1.47;1.03;;;;;;;;;;5092778;28;20201;-73
2022/05/29 09:24:54;;;;;;;1.00;0.97;;;;;;;;;;5088695;28;20212;-73
2022/05/29 09:27:23;;;;;;;1.70;0.97;;;;;;;;;;5097824;28;20669;-73
2022/05/29 09:29:51;;;;;;;2.00;1.40;;;;;;;;;;5098047;28;20243;-74
2022/05/29 09:32:20;;;;;;;2.30;1.20;;;;;;;;;;5097821;28;20220;-72
2022/05/29 09:35:06;;;;;;;2.53;1.40;;;;;;;;;;5098111;28;20265;-73
2022/05/29 09:37:47;;;;;;;4.93;2.47;;;;;;;;;;5097927;28;20197;-72
2022/05/29 09:40:18;;;;;;;2.13;1.73;;;;;;;;;;5090802;28;20636;-72
2022/05/29 09:42:48;;;;;;;1.03;0.80;;;;;;;;;;5118264;28;20213;-72
2022/05/29 09:45:24;;;;;;;4.63;1.60;;;;;;;;;;5118019;28;20209;-72
2022/05/29 09:50:42;;;;;;;2.47;1.20;;;;;;;;;;5100998;28;20236;-73
2022/05/29 09:53:16;;;;;;;2.37;1.00;;;;;;;;;;5094380;28;20235;-73
2022/05/29 09:55:49;;;;;;;2.63;1.17;;;;;;;;;;5094507;28;20249;-70
2022/05/29 09:58:21;;;;;;;2.80;1.10;;;;;;;;;;5098053;28;20190;-70
2022/05/29 10:01:04;;;;;;;4.07;0.97;;;;;;;;;;5095468;28;20204;-71
2022/05/29 10:03:43;;;;;;;0.80;0.80;;;;;;;;;;5095684;28;20734;-71
2022/05/29 10:06:14;;;;;;;1.93;1.10;;;;;;;;;;5097453;28;20232;-71
2022/05/29 10:08:44;;;;;;;2.30;1.00;;;;;;;;;;5096512;28;20737;-70
2022/05/29 10:11:16;;;;;;;2.27;1.00;;;;;;;;;;5096993;28;20202;-73
2022/05/29 10:13:45;;;;;;;5.17;1.30;;;;;;;;;;5096963;28;20201;-73
2022/05/29 10:16:14;;;;;;;2.37;1.30;;;;;;;;;;5096796;28;20249;-71
2022/05/29 10:18:42;;;;;;;1.10;1.10;;;;;;;;;;5097362;28;20208;-74
2022/05/29 10:21:15;;;;;;;1.27;1.10;;;;;;;;;;5097448;28;20205;-73
2022/05/29 10:23:47;;;;;;;1.40;1.00;;;;;;;;;;5097515;28;20292;-73
2022/05/29 10:26:17;;;;;;;5.27;1.30;;;;;;;;;;5097095;28;20225;-73
2022/05/29 10:28:45;;;;;;;3.83;1.07;;;;;;;;;;5096704;28;20763;-73
2022/05/29 10:31:14;;;;;;;1.67;1.20;;;;;;;;;;5097324;28;20244;-73
2022/05/29 10:34:00;;;;;;;6.73;1.00;;;;;;;;;;5097588;28;20212;-75
2022/05/29 10:36:29;;;;;;;1.87;1.00;;;;;;;;;;5097327;28;20275;-65
2022/05/29 10:39:06;;;;;;;1.87;0.97;;;;;;;;;;5101079;28;20196;-65
2022/05/29 10:41:36;;;;;;;2.50;1.50;;;;;;;;;;5117341;28;20232;-65
2022/05/29 10:44:04;;;;;;;3.43;1.23;;;;;;;;;;5117325;28;20208;-65
2022/05/29 10:46:40;;;;;;;1.80;1.10;;;;;;;;;;5117511;28;20225;-65
2022/05/29 10:49:19;;;;;;;2.37;1.23;;;;;;;;;;5112944;28;20251;-65
2022/05/29 10:52:02;;;;;;;2.27;1.10;;;;;;;;;;5097152;28;20229;-65
2022/05/29 10:54:36;;;;;;;2.10;0.93;;;;;;;;;;5084963;28;20220;-65
2022/05/29 10:57:09;;;;;;;1.00;0.93;;;;;;;;;;5097012;28;20293;-65
2022/05/29 10:59:51;;;;;;;2.03;1.17;;;;;;;;;;5096817;28;20250;-65
2022/05/29 11:05:32;;;;;;;1.20;1.10;;;;;;;;;;5098835;28;20204;-65
2022/05/29 11:08:05;;;;;;;1.23;1.13;;;;;;;;;;5106111;28;20656;-64
2022/05/29 11:10:46;;;;;;;3.00;1.20;;;;;;;;;;5097977;28;20215;-65
2022/05/29 11:13:24;;;;;;;7.27;1.93;;;;;;;;;;5096791;28;20228;-65
2022/05/29 11:15:55;;;;;;;7.60;1.47;;;;;;;;;;5086731;28;20260;-65
2022/05/29 11:18:34;;;;;;;2.60;1.53;;;;;;;;;;5096706;28;20241;-65
2022/05/29 11:21:05;;;;;;;2.87;1.20;;;;;;;;;;5098164;28;20262;-65
2022/05/29 11:23:40;;;;;;;1.63;1.03;;;;;;;;;;5100181;28;20233;-65
2022/05/29 11:26:21;;;;;;;2.07;1.30;;;;;;;;;;5100329;28;20229;-65
2022/05/29 11:29:07;;;;;;;3.20;1.13;;;;;;;;;;5100472;28;20232;-65
2022/05/29 11:31:57;;;;;;;3.23;1.20;;;;;;;;;;5100163;28;20611;-66
2022/05/29 11:34:29;;;;;;;1.00;0.80;;;;;;;;;;5100309;28;20213;-65
2022/05/29 11:37:18;;;;;;;3.27;1.57;;;;;;;;;;5100035;28;20229;-65
2022/05/29 11:39:49;;;;;;;3.57;1.27;;;;;;;;;;5095256;28;20194;-65
2022/05/29 11:42:20;;;;;;;2.53;1.63;;;;;;;;;;5099966;28;20653;-65
2022/05/29 11:44:51;;;;;;;1.77;1.17;;;;;;;;;;5099868;28;20233;-65
2022/05/29 11:53:16;;;;;;;1.57;1.30;;;;;;;;;;5048515;28;20210;-65
2022/05/29 11:55:46;;;;;;;1.63;1.20;;;;;;;;;;5091477;28;20304;-72
2022/05/29 11:58:18;;;;;;;3.07;1.70;;;;;;;;;;5097563;28;20676;-75
2022/05/29 12:00:48;;;;;;;2.50;0.77;;;;;;;;;;5099735;28;20296;-75
2022/05/29 12:03:22;;;;;;;3.73;1.27;;;;;;;;;;5099719;28;20229;-75
2022/05/29 12:05:53;;;;;;;4.33;1.10;;;;;;;;;;5096816;28;20232;-75
2022/05/29 12:08:26;;;;;;;2.37;1.20;;;;;;;;;;5099012;28;20755;-75
2022/05/29 12:10:59;;;;;;;2.13;1.20;;;;;;;;;;5098222;28;20247;-75
2022/05/29 12:13:32;;;;;;;1.53;1.00;;;;;;;;;;5093647;28;20237;-75
2022/05/29 12:16:02;;;;;;;1.07;0.90;;;;;;;;;;5099015;28;20252;-75
2022/05/29 12:18:34;;;;;;;3.13;1.53;;;;;;;;;;5099501;28;20209;-75
2022/05/29 12:21:03;;;;;;;2.80;1.17;;;;;;;;;;5099709;28;20202;-75
2022/05/29 12:23:33;;;;;;;2.13;1.13;;;;;;;;;;5099412;28;20237;-75
2022/05/29 12:26:03;;;;;;;1.77;0.90;;;;;;;;;;5099451;28;20222;-75
2022/05/29 12:28:37;;;;;;;1.33;0.87;;;;;;;;;;5099097;28;20245;-75
2022/05/29 12:31:07;;;;;;;4.93;0.93;;;;;;;;;;5099034;28;20198;-75
2022/05/29 12:33:35;;;;;;;1.17;0.80;;;;;;;;;;5098309;28;20214;-75
2022/05/29 12:36:08;;;;;;;3.37;1.37;;;;;;;;;;5099037;28;20226;-75
2022/05/29 12:38:47;;;;;;;1.33;1.23;;;;;;;;;;5098760;28;20567;-75
2022/05/29 12:41:25;;;;;;;3.43;1.03;;;;;;;;;;5099005;28;20202;-75
2022/05/29 12:44:06;;;;;;;2.40;1.10;;;;;;;;;;5098754;28;20194;-75
2022/05/29 12:46:41;;;;;;;2.10;1.17;;;;;;;;;;5098772;28;20261;-75
2022/05/29 12:49:30;;;;;;;2.77;1.17;;;;;;;;;;5098625;28;20256;-75
2022/05/29 12:52:08;;;;;;;2.23;0.80;;;;;;;;;;5086039;28;20730;-75
2022/05/29 12:54:48;;;;;;;3.00;1.20;;;;;;;;;;5094603;28;20235;-75
2022/05/29 12:57:49;;;;;;;1.63;0.97;;;;;;;;;;5098829;28;20286;-75
2022/05/29 13:00:41;;;;;;;2.50;1.43;;;;;;;;;;5098556;28;20232;-75
2022/05/29 13:03:26;;;;;;;1.43;1.10;;;;;;;;;;5042009;28;20266;-75
2022/05/29 13:06:08;;;;;;;2.53;1.20;;;;;;;;;;5098342;28;20225;-75
2022/05/29 13:08:55;;;;;;;2.57;1.13;;;;;;;;;;5097982;28;20237;-75
2022/05/29 13:11:24;;;;;;;3.20;1.07;;;;;;;;;;5093086;28;20240;-75
2022/05/29 13:13:55;;;;;;;2.77;1.20;;;;;;;;;;5092591;28;20244;-75
2022/05/29 13:16:24;;;;;;;2.57;1.10;;;;;;;;;;5098346;28;20256;-75
2022/05/29 13:19:07;;;;;;;1.60;1.00;;;;;;;;;;5098255;28;20209;-75
2022/05/29 13:21:52;;;;;;;3.73;1.33;;;;;;;;;;5098313;28;20237;-75
2022/05/29 13:24:20;;;;;;;2.60;2.00;;;;;;;;;;5098154;28;20237;-75
2022/05/29 13:27:10;;;;;;;5.03;1.60;;;;;;;;;;5098234;28;20260;-75
2022/05/29 13:29:40;;;;;;;2.27;1.00;;;;;;;;;;5097575;28;20692;-75
2022/05/29 13:32:26;;;;;;;1.50;1.00;;;;;;;;;;5098248;28;20198;-75
2022/05/29 13:35:15;;;;;;;1.20;0.90;;;;;;;;;;5098079;28;20209;-75
2022/05/29 13:37:46;;;;;;;2.90;1.03;;;;;;;;;;5097478;28;20284;-74
2022/05/29 13:40:29;;;;;;;1.10;1.00;;;;;;;;;;5097895;28;20201;-75
2022/05/29 13:43:18;;;;;;;2.27;0.90;;;;;;;;;;5097427;28;20240;-76
2022/05/29 13:45:57;;;;;;;2.73;1.00;;;;;;;;;;5097080;28;20265;-75
2022/05/29 13:48:26;;;;;;;2.40;1.10;;;;;;;;;;5097680;28;20264;-75
2022/05/29 13:50:56;;;;;;;1.30;0.80;;;;;;;;;;5115188;28;20256;-75
2022/05/29 13:53:49;;;;;;;5.43;0.97;;;;;;;;;;5107253;28;20201;-75
2022/05/29 13:56:21;;;;;;;3.60;0.77;;;;;;;;;;5083744;28;20225;-75
2022/05/29 14:04:42;;;;;;;1.53;0.80;;;;;;;;;;5097364;28;20582;-75
2022/05/29 14:07:15;;;;;;;1.50;0.80;;;;;;;;;;5097628;28;20221;-75
2022/05/29 14:09:44;;;;;;;1.00;0.80;;;;;;;;;;5097432;28;20261;-75
2022/05/29 14:12:17;;;;;;;1.83;1.00;;;;;;;;;;5085260;28;20576;-76
2022/05/29 14:14:49;;;;;;;0.73;0.73;;;;;;;;;;5096702;28;20258;-75
2022/05/29 14:17:21;;;;;;;1.53;1.30;;;;;;;;;;5097462;28;20249;-75
2022/05/29 14:20:13;;;;;;;1.73;1.20;;;;;;;;;;5097121;28;20212;-75
2022/05/29 14:22:59;;;;;;;1.37;0.90;;;;;;;;;;5097192;28;20208;-74
2022/05/29 14:25:44;;;;;;;5.77;1.53;;;;;;;;;;5097041;28;20731;-74
2022/05/29 14:28:20;;;;;;;2.07;1.00;;;;;;;;;;5097301;28;20202;-75
2022/05/29 14:31:05;;;;;;;2.37;0.90;;;;;;;;;;5096920;28;20286;-75
2022/05/29 14:33:41;;;;;;;1.73;0.90;;;;;;;;;;5096903;28;20203;-74
2022/05/29 14:36:19;;;;;;;1.07;1.07;;;;;;;;;;5097160;28;20751;-75
2022/05/29 14:39:01;;;;;;;2.40;0.80;;;;;;;;;;5097187;28;20244;-75
2022/05/29 14:41:31;;;;;;;1.17;0.77;;;;;;;;;;5097391;28;20231;-74
2022/05/29 14:44:05;;;;;;;1.03;0.90;;;;;;;;;;5097069;28;20211;-74
2022/05/29 14:46:38;;;;;;;4.87;1.40;;;;;;;;;;5097042;28;20267;-74
2022/05/29 14:49:08;;;;;;;2.50;1.03;;;;;;;;;;5096595;28;20229;-75
2022/05/29 14:51:39;;;;;;;4.77;0.90;;;;;;;;;;5097151;28;20249;-74
2022/05/29 14:54:12;;;;;;;1.00;0.90;;;;;;;;;;5085231;28;20605;-74
2022/05/29 14:56:41;;;;;;;2.50;1.37;;;;;;;;;;5110486;28;20260;-74
2022/05/29 14:59:21;;;;;;;1.63;1.07;;;;;;;;;;5120940;28;20205;-75
2022/05/29 15:01:52;;;;;;;1.83;0.90;;;;;;;;;;5121658;28;20232;-75
2022/05/29 15:04:35;;;;;;;3.97;1.70;;;;;;;;;;5121695;28;20200;-74
2022/05/29 15:12:36;;;;;;;1.80;1.10;;;;;;;;;;5100749;28;20656;-76
2022/05/29 15:15:21;;;;;;;4.17;1.30;;;;;;;;;;5100287;28;20230;-76
2022/05/29 15:17:49;;;;;;;1.73;0.70;;;;;;;;;;5100852;28;20194;-76
2022/05/29 15:26:02;;;;;;;0.67;0.67;;;;;;;;;;5100299;28;20245;-76
2022/05/29 15:28:31;;;;;;;3.57;0.93;;;;;;;;;;5100543;28;20223;-76
2022/05/29 15:31:01;;;;;;;0.90;0.83;;;;;;;;;;5100120;28;20225;-76
2022/05/29 15:33:36;;;;;;;1.33;0.90;;;;;;;;;;5100779;28;20251;-75
2022/05/29 15:36:10;;;;;;;6.83;1.07;;;;;;;;;;5100313;28;20225;-76
2022/05/29 15:38:41;;;;;;;3.50;1.20;;;;;;;;;;5100679;28;20201;-76
2022/05/29 15:41:17;;;;;;;1.50;0.90;;;;;;;;;;5100461;28;20227;-76
2022/05/29 15:43:55;;;;;;;4.23;1.17;;;;;;;;;;5100150;28;20205;-76
2022/05/29 15:46:43;;;;;;;1.53;0.83;;;;;;;;;;5100590;28;20221;-76
2022/05/29 15:49:17;;;;;;;2.73;0.60;;;;;;;;;;5099978;28;20287;-76
2022/05/29 15:51:49;;;;;;;3.57;1.10;;;;;;;;;;5100076;28;20262;-75
2022/05/29 15:54:24;;;;;;;2.23;0.77;;;;;;;;;;5088016;28;20209;-76
2022/05/29 15:56:56;;;;;;;2.17;1.30;;;;;;;;;;5084832;28;20225;-75
2022/05/29 15:59:33;;;;;;;1.03;0.87;;;;;;;;;;5098845;28;20240;-75
2022/05/29 16:02:05;;;;;;;0.83;0.83;;;;;;;;;;5100133;28;20233;-76
2022/05/29 16:04:34;;;;;;;2.77;1.20;;;;;;;;;;5100018;28;20209;-75